Time;durP1;ratioP1;P1;durP2;ratioP2;P2;SDS_P1;SDS_P2;PMS_P1;PMS_P2;Temp;Humidity;BMP_temperature;BMP_pressure;BME280_temperature;BME280_humidity;BME280_pressure;Samples;Min_cycle;Max_cycle;Signal;HPM_P1;HPM_P2
2021/04/26 00:02:04;;;;;;;10.68;3.65;;;;;;;3.58;100.00;102368.41;5187179;28;20052;-79
2021/04/26 00:04:35;;;;;;;14.18;3.50;;;;;;;3.53;100.00;102370.47;5173782;28;20026;-79
2021/04/26 00:07:06;;;;;;;10.98;3.50;;;;;;;3.49;100.00;102368.91;5180163;28;20037;-79
2021/04/26 00:09:36;;;;;;;14.05;3.60;;;;;;;3.46;100.00;102361.97;5163845;28;20097;-79
2021/04/26 00:12:07;;;;;;;14.45;3.40;;;;;;;3.44;100.00;102358.56;5186194;28;20022;-78
2021/04/26 00:14:37;;;;;;;14.73;4.03;;;;;;;3.43;100.00;102358.63;5172755;28;20484;-79
2021/04/26 00:17:08;;;;;;;16.92;3.90;;;;;;;3.42;100.00;102360.44;5176127;28;20030;-79
2021/04/26 00:19:39;;;;;;;15.98;3.65;;;;;;;3.41;100.00;102355.19;5182230;28;20112;-78
2021/04/26 00:22:09;;;;;;;13.68;3.20;;;;;;;3.37;100.00;102351.88;5166101;28;20026;-79
2021/04/26 00:24:41;;;;;;;14.98;3.15;;;;;;;3.34;100.00;102354.69;5170318;28;20037;-79
2021/04/26 00:27:11;;;;;;;19.08;5.20;;;;;;;3.32;100.00;102348.63;5174111;28;20574;-79
2021/04/26 00:29:42;;;;;;;17.80;4.10;;;;;;;3.33;100.00;102337.91;5184641;28;20026;-79
2021/04/26 00:32:12;;;;;;;18.42;3.53;;;;;;;3.35;100.00;102333.38;5184453;28;20304;-78
2021/04/26 00:34:42;;;;;;;16.13;3.60;;;;;;;3.36;100.00;102337.75;5148036;28;20030;-79
2021/04/26 00:37:13;;;;;;;8.18;2.90;;;;;;;3.38;100.00;102341.16;5179392;28;20033;-77
2021/04/26 00:39:43;;;;;;;8.77;3.35;;;;;;;3.33;100.00;102329.94;5155646;28;20029;-79
2021/04/26 00:42:14;;;;;;;16.90;3.47;;;;;;;3.29;100.00;102323.09;5162289;28;20022;-79
2021/04/26 00:44:44;;;;;;;13.73;3.22;;;;;;;3.29;100.00;102322.25;5185411;28;20052;-78
2021/04/26 00:47:15;;;;;;;11.40;3.08;;;;;;;3.26;100.00;102317.09;5167479;28;20424;-79
2021/04/26 00:49:45;;;;;;;12.35;3.72;;;;;;;3.28;100.00;102316.09;5173714;28;20037;-78
2021/04/26 00:52:16;;;;;;;17.55;3.17;;;;;;;3.25;100.00;102316.25;5183438;28;20056;-79
2021/04/26 00:54:47;;;;;;;11.68;3.35;;;;;;;3.24;100.00;102322.50;5172287;28;20341;-79
2021/04/26 00:57:17;;;;;;;9.68;3.45;;;;;;;3.23;100.00;102323.44;5157209;28;20063;-77
2021/04/26 00:59:48;;;;;;;9.82;3.47;;;;;;;3.23;100.00;102318.13;5170132;28;20029;-78
2021/04/26 01:02:19;;;;;;;13.70;3.30;;;;;;;3.22;100.00;102319.06;5146432;28;20030;-78
2021/04/26 01:04:51;;;;;;;22.50;3.50;;;;;;;3.19;100.00;102311.28;5165354;28;20026;-78
2021/04/26 01:07:23;;;;;;;15.93;4.82;;;;;;;3.15;100.00;102309.72;5178190;28;20092;-79
2021/04/26 01:09:53;;;;;;;14.32;3.45;;;;;;;3.11;100.00;102321.41;5170686;28;20108;-78
2021/04/26 01:13:10;;;;;;;17.33;3.58;;;;;;;3.14;100.00;102318.63;5176207;28;20384;-79
2021/04/26 01:16:12;;;;;;;11.85;3.00;;;;;;;3.05;100.00;102314.66;5161146;28;20121;-79
2021/04/26 01:18:54;;;;;;;9.70;3.20;;;;;;;3.04;100.00;102314.75;5176545;28;20060;-79
2021/04/26 01:22:00;;;;;;;18.33;3.90;;;;;;;3.02;100.00;102312.19;5168746;28;20036;-79
2021/04/26 01:24:59;;;;;;;12.98;3.00;;;;;;;2.98;100.00;102307.13;5180495;28;20053;-78
2021/04/26 01:27:41;;;;;;;8.43;3.60;;;;;;;2.95;100.00;102301.97;5166429;28;20407;-77
2021/04/26 01:30:33;;;;;;;10.48;3.13;;;;;;;2.95;100.00;102313.44;5167787;28;20061;-79
2021/04/26 01:33:17;;;;;;;17.20;3.60;;;;;;;2.96;100.00;102319.59;5174553;28;20034;-79
2021/04/26 01:35:49;;;;;;;10.50;3.17;;;;;;;2.90;100.00;102323.41;5170810;28;20042;-79
2021/04/26 01:38:25;;;;;;;10.13;3.80;;;;;;;2.94;100.00;102318.81;5177086;28;20347;-79
2021/04/26 01:40:58;;;;;;;15.25;3.25;;;;;;;2.90;100.00;102323.41;5170124;28;20481;-79
2021/04/26 01:43:29;;;;;;;12.80;3.00;;;;;;;2.87;100.00;102315.66;5179460;28;20049;-77
2021/04/26 01:46:02;;;;;;;10.77;3.60;;;;;;;2.82;100.00;102312.38;5180748;28;20388;-79
2021/04/26 01:48:37;;;;;;;16.05;3.95;;;;;;;2.82;100.00;102299.13;5180958;28;20041;-79
2021/04/26 01:51:10;;;;;;;20.35;3.35;;;;;;;2.84;100.00;102307.84;5175714;28;20030;-79
2021/04/26 01:53:43;;;;;;;17.02;3.08;;;;;;;2.80;100.00;102304.50;5172042;28;20671;-77
2021/04/26 01:56:16;;;;;;;12.65;3.40;;;;;;;2.82;100.00;102297.34;5167022;28;20026;-78
2021/04/26 01:58:48;;;;;;;11.32;3.22;;;;;;;2.76;100.00;102296.78;5167617;28;20018;-79
2021/04/26 02:01:22;;;;;;;13.30;3.25;;;;;;;2.76;100.00;102295.00;5180137;28;20044;-78
2021/04/26 02:03:56;;;;;;;15.50;4.07;;;;;;;2.74;100.00;102290.72;5183610;28;20033;-79
2021/04/26 02:06:28;;;;;;;11.75;3.70;;;;;;;2.74;100.00;102290.72;5182824;28;20034;-79
2021/04/26 02:09:00;;;;;;;18.80;3.97;;;;;;;2.71;100.00;102285.56;5171055;28;20089;-79
2021/04/26 02:11:31;;;;;;;10.38;3.70;;;;;;;2.74;100.00;102282.75;5171806;28;20113;-79
2021/04/26 02:14:01;;;;;;;12.15;3.17;;;;;;;2.72;100.00;102284.66;5156165;28;20114;-79
2021/04/26 02:16:32;;;;;;;12.02;3.60;;;;;;;2.67;100.00;102282.25;5189505;28;20040;-79
2021/04/26 02:19:03;;;;;;;13.25;3.80;;;;;;;2.68;100.00;102283.94;5179926;28;20121;-78
2021/04/26 02:21:34;;;;;;;8.07;3.20;;;;;;;2.65;100.00;102292.03;5170269;28;20395;-79
2021/04/26 02:24:05;;;;;;;7.35;3.20;;;;;;;2.57;100.00;102275.72;5171632;28;20022;-79
2021/04/26 02:26:35;;;;;;;11.35;3.13;;;;;;;2.56;100.00;102277.50;5177580;28;20068;-78
2021/04/26 02:29:06;;;;;;;12.50;3.15;;;;;;;2.52;100.00;102275.09;5185578;28;20507;-79
2021/04/26 02:31:40;;;;;;;20.63;5.60;;;;;;;2.48;100.00;102282.34;5206369;28;20045;-78
2021/04/26 02:34:24;;;;;;;9.88;3.05;;;;;;;2.45;100.00;102276.31;5157290;28;20026;-79
2021/04/26 02:37:01;;;;;;;14.90;3.65;;;;;;;2.40;100.00;102273.91;5206424;28;20029;-79
2021/04/26 02:39:34;;;;;;;14.13;3.40;;;;;;;2.35;100.00;102268.00;5183271;28;20034;-79
2021/04/26 02:42:07;;;;;;;9.52;3.58;;;;;;;2.33;100.00;102264.56;5182492;28;20487;-79
2021/04/26 02:44:39;;;;;;;16.58;3.88;;;;;;;2.28;100.00;102258.66;5180149;28;20041;-79
2021/04/26 02:47:13;;;;;;;14.13;3.40;;;;;;;2.25;100.00;102256.16;5182404;28;20117;-79
2021/04/26 02:49:46;;;;;;;16.87;5.87;;;;;;;2.19;100.00;102241.44;5177523;28;20025;-79
2021/04/26 02:52:17;;;;;;;9.43;3.63;;;;;;;2.15;100.00;102239.88;5175534;28;20137;-79
2021/04/26 02:54:48;;;;;;;8.65;3.58;;;;;;;2.11;100.00;102235.69;5176492;28;20536;-79
2021/04/26 02:57:19;;;;;;;17.95;3.20;;;;;;;2.10;100.00;102228.66;5166981;28;20101;-79
2021/04/26 02:59:52;;;;;;;10.95;3.88;;;;;;;2.13;100.00;102225.03;5180912;28;20042;-79
2021/04/26 03:02:22;;;;;;;11.73;3.30;;;;;;;2.12;100.00;102226.81;5187597;28;20438;-78
2021/04/26 03:04:54;;;;;;;10.55;3.30;;;;;;;2.11;100.00;102219.81;5187624;28;20025;-78
2021/04/26 03:07:26;;;;;;;9.70;3.17;;;;;;;2.09;100.00;102224.31;5170808;28;20057;-79
2021/04/26 03:09:59;;;;;;;9.95;3.28;;;;;;;2.05;100.00;102214.81;5170674;28;20369;-78
2021/04/26 03:12:32;;;;;;;10.13;4.18;;;;;;;2.02;100.00;102217.63;5166471;28;20018;-79
2021/04/26 03:15:07;;;;;;;14.50;3.92;;;;;;;2.13;100.00;102209.13;5171372;28;20033;-79
2021/04/26 03:17:38;;;;;;;13.02;3.42;;;;;;;2.11;100.00;102214.53;5187241;28;20085;-76
2021/04/26 03:20:12;;;;;;;13.63;3.88;;;;;;;2.13;100.00;102210.00;5179943;28;20030;-78
2021/04/26 03:22:44;;;;;;;14.05;4.03;;;;;;;2.15;100.00;102209.91;5166906;28;20026;-78
2021/04/26 03:25:19;;;;;;;24.27;4.80;;;;;;;2.11;100.00;102209.22;5175890;28;20038;-77
2021/04/26 03:27:52;;;;;;;8.73;3.55;;;;;;;2.03;100.00;102208.75;5176282;28;20033;-79
2021/04/26 03:30:25;;;;;;;11.20;3.45;;;;;;;1.99;100.00;102204.53;5177498;28;20033;-79
2021/04/26 03:32:56;;;;;;;12.15;3.05;;;;;;;1.95;100.00;102205.63;5172644;28;20032;-79
2021/04/26 03:35:27;;;;;;;11.45;3.15;;;;;;;1.88;100.00;102202.44;5186042;28;20398;-79
2021/04/26 03:37:58;;;;;;;17.95;3.17;;;;;;;1.89;100.00;102198.84;5166016;28;20492;-79
2021/04/26 03:40:28;;;;;;;10.20;3.35;;;;;;;1.87;100.00;102199.88;5169048;28;20026;-79
2021/04/26 03:43:00;;;;;;;7.93;3.17;;;;;;;1.82;100.00;102202.75;5160223;28;20493;-79
2021/04/26 03:45:31;;;;;;;17.77;4.18;;;;;;;1.69;100.00;102197.19;5187628;28;20061;-78
2021/04/26 03:48:02;;;;;;;12.13;3.25;;;;;;;1.66;100.00;102202.66;5168901;28;20027;-79
2021/04/26 03:50:32;;;;;;;14.57;3.60;;;;;;;1.58;100.00;102194.22;5181044;28;20030;-78
2021/04/26 03:53:03;;;;;;;13.25;3.40;;;;;;;1.51;100.00;102209.56;5177875;28;20541;-79
2021/04/26 03:55:33;;;;;;;12.52;3.55;;;;;;;1.51;100.00;102198.97;5171494;28;20062;-79
2021/04/26 03:58:06;;;;;;;14.35;3.60;;;;;;;1.45;100.00;102201.03;5168126;28;20026;-78
2021/04/26 04:00:37;;;;;;;10.27;3.50;;;;;;;1.40;100.00;102205.69;5176365;28;20037;-78
2021/04/26 04:03:09;;;;;;;11.45;3.90;;;;;;;1.37;100.00;102214.66;5176522;28;20384;-75
2021/04/26 04:05:41;;;;;;;13.32;3.80;;;;;;;1.37;100.00;102209.38;5181647;28;20460;-77
2021/04/26 04:08:11;;;;;;;22.38;5.53;;;;;;;1.32;100.00;102210.53;5182102;28;20471;-78
2021/04/26 04:10:42;;;;;;;13.15;4.60;;;;;;;1.49;100.00;102207.91;5177993;28;20021;-77
2021/04/26 04:13:12;;;;;;;14.13;3.83;;;;;;;1.55;100.00;102205.81;5174064;28;20022;-78
2021/04/26 04:15:43;;;;;;;14.73;4.95;;;;;;;1.66;100.00;102200.03;5180886;28;20038;-78
2021/04/26 04:18:13;;;;;;;11.85;3.40;;;;;;;1.74;100.00;102186.38;5188935;28;20068;-78
2021/04/26 04:20:43;;;;;;;18.38;3.88;;;;;;;1.68;100.00;102184.91;5177092;28;20058;-78
2021/04/26 04:23:14;;;;;;;13.50;3.92;;;;;;;1.64;100.00;102188.63;5169835;28;20076;-78
2021/04/26 04:25:44;;;;;;;12.15;3.33;;;;;;;1.58;100.00;102186.31;5167524;28;20030;-78
2021/04/26 04:28:15;;;;;;;19.80;4.05;;;;;;;1.52;100.00;102183.97;5174070;28;20061;-78
2021/04/26 04:30:45;;;;;;;15.07;4.35;;;;;;;1.50;100.00;102180.53;5183502;28;20022;-78
2021/04/26 04:33:16;;;;;;;16.25;4.22;;;;;;;1.46;100.00;102189.56;5189316;28;20108;-78
2021/04/26 04:35:46;;;;;;;12.00;4.20;;;;;;;1.45;100.00;102193.09;5176702;28;20032;-78
2021/04/26 04:38:18;;;;;;;13.18;4.10;;;;;;;1.44;100.00;102191.41;5180114;28;20064;-78
2021/04/26 04:40:49;;;;;;;17.17;4.32;;;;;;;1.38;100.00;102189.06;5168058;28;20022;-78
2021/04/26 04:43:20;;;;;;;14.77;4.28;;;;;;;1.39;100.00;102196.91;5178111;28;20022;-78
2021/04/26 04:45:51;;;;;;;19.23;4.18;;;;;;;1.40;100.00;102201.25;5176712;28;20099;-78
2021/04/26 04:48:21;;;;;;;10.88;4.88;;;;;;;1.44;100.00;102199.34;5177130;28;20072;-78
2021/04/26 04:50:52;;;;;;;12.18;3.95;;;;;;;1.45;100.00;102212.47;5174124;28;20057;-79
2021/04/26 04:53:22;;;;;;;11.43;3.67;;;;;;;1.47;100.00;102200.06;5188962;28;20064;-76
2021/04/26 04:55:53;;;;;;;10.50;4.05;;;;;;;1.49;100.00;102202.63;5180867;28;20464;-78
2021/04/26 04:58:23;;;;;;;14.27;4.63;;;;;;;1.48;100.00;102200.91;5171327;28;20022;-77
2021/04/26 05:00:54;;;;;;;12.60;3.95;;;;;;;1.49;100.00;102202.63;5189805;28;20048;-78
2021/04/26 05:03:24;;;;;;;12.50;4.15;;;;;;;1.52;100.00;102202.47;5186219;28;20455;-78
2021/04/26 05:05:55;;;;;;;17.75;4.10;;;;;;;1.60;100.00;102202.94;5179859;28;20021;-78
2021/04/26 05:08:25;;;;;;;12.00;4.20;;;;;;;1.63;100.00;102207.25;5184503;28;20456;-78
2021/04/26 05:10:56;;;;;;;19.90;3.88;;;;;;;1.67;100.00;102207.00;5181099;28;20208;-79
2021/04/26 05:13:26;;;;;;;13.15;3.85;;;;;;;1.73;100.00;102208.50;5169987;28;20022;-79
2021/04/26 05:15:57;;;;;;;21.17;4.30;;;;;;;1.80;100.00;102207.25;5168520;28;20032;-78
2021/04/26 05:18:27;;;;;;;11.15;3.72;;;;;;;1.86;100.00;102206.06;5182880;28;20073;-79
2021/04/26 05:20:58;;;;;;;14.55;4.82;;;;;;;1.99;100.00;102204.53;5170299;28;20038;-79
2021/04/26 05:23:30;;;;;;;13.02;3.90;;;;;;;2.56;100.00;102205.97;5188344;28;20018;-76
2021/04/26 05:26:00;;;;;;;11.50;3.40;;;;;;;4.00;100.00;102197.88;5176937;28;20353;-79
2021/04/26 05:28:31;;;;;;;15.90;4.22;;;;;;;5.23;100.00;102196.47;5173792;28;20037;-76
2021/04/26 05:31:01;;;;;;;16.08;3.75;;;;;;;6.34;100.00;102196.16;5185924;28;20054;-79
2021/04/26 05:33:32;;;;;;;12.35;3.83;;;;;;;7.24;100.00;102204.91;5193481;28;20029;-79
2021/04/26 05:36:02;;;;;;;8.35;3.33;;;;;;;7.67;100.00;102194.56;5187664;28;20029;-79
2021/04/26 05:38:33;;;;;;;15.18;3.55;;;;;;;8.05;100.00;102199.72;5195603;28;20061;-77
2021/04/26 05:41:03;;;;;;;19.85;3.80;;;;;;;8.40;89.69;102196.19;5183538;28;20034;-78
2021/04/26 05:43:34;;;;;;;16.63;3.30;;;;;;;8.75;84.31;102200.59;5181567;28;20053;-79
2021/04/26 05:46:04;;;;;;;12.40;3.58;;;;;;;9.13;77.62;102199.34;5181235;28;20025;-79
2021/04/26 05:48:35;;;;;;;6.57;2.67;;;;;;;9.47;69.42;102200.97;5178115;28;20488;-81
2021/04/26 05:51:05;;;;;;;9.15;2.85;;;;;;;9.39;68.52;102200.78;5172655;28;20034;-77
2021/04/26 05:53:36;;;;;;;13.10;3.25;;;;;;;9.38;68.39;102200.88;5189073;28;20037;-78
2021/04/26 05:56:07;;;;;;;9.77;2.63;;;;;;;9.45;69.92;102197.56;5175514;28;20069;-78
2021/04/26 05:58:37;;;;;;;19.67;3.38;;;;;;;9.71;67.57;102195.41;5175206;28;20025;-76
2021/04/26 06:01:08;;;;;;;9.98;3.10;;;;;;;9.86;67.10;102190.59;5194012;28;20445;-78
2021/04/26 06:03:39;;;;;;;7.07;3.08;;;;;;;9.82;64.59;102183.78;5180394;28;20026;-77
2021/04/26 06:06:09;;;;;;;9.07;3.00;;;;;;;9.48;65.49;102194.63;5194042;28;20426;-78
2021/04/26 06:08:40;;;;;;;11.73;3.45;;;;;;;9.24;69.88;102183.28;5186654;28;20032;-78
2021/04/26 06:11:10;;;;;;;12.45;3.50;;;;;;;8.47;76.56;102183.16;5173801;28;20037;-80
2021/04/26 06:13:41;;;;;;;10.40;3.20;;;;;;;7.92;86.97;102177.56;5186857;28;20084;-79
2021/04/26 06:16:11;;;;;;;10.88;3.30;;;;;;;7.13;100.00;102180.81;5186646;28;20045;-80
2021/04/26 06:18:42;;;;;;;10.13;3.47;;;;;;;6.47;100.00;102180.16;5182067;28;20033;-78
2021/04/26 06:21:12;;;;;;;9.75;3.40;;;;;;;6.10;100.00;102179.19;5179808;28;20120;-79
2021/04/26 06:23:43;;;;;;;10.13;3.53;;;;;;;5.69;100.00;102178.34;5192970;28;20041;-77
2021/04/26 06:26:13;;;;;;;14.93;3.97;;;;;;;5.39;100.00;102178.56;5188560;28;20076;-78
2021/04/26 06:28:44;;;;;;;12.80;3.85;;;;;;;5.32;100.00;102177.25;5172447;28;20026;-79
2021/04/26 06:31:14;;;;;;;10.48;4.30;;;;;;;5.36;100.00;102173.41;5176897;28;20060;-80
2021/04/26 06:33:44;;;;;;;14.90;3.92;;;;;;;5.36;100.00;102162.78;5181399;28;20030;-79
2021/04/26 06:36:15;;;;;;;15.52;3.95;;;;;;;5.38;100.00;102171.53;5207477;28;20080;-80
2021/04/26 06:38:45;;;;;;;10.30;3.80;;;;;;;5.34;100.00;102170.00;5179436;28;20030;-80
2021/04/26 06:41:16;;;;;;;12.57;4.72;;;;;;;5.39;100.00;102175.03;5179282;28;20026;-78
2021/04/26 06:43:46;;;;;;;8.65;4.47;;;;;;;5.51;100.00;102174.22;5191899;28;20018;-79
2021/04/26 06:46:17;;;;;;;13.18;4.15;;;;;;;5.67;100.00;102174.06;5192994;28;20060;-79
2021/04/26 06:48:48;;;;;;;14.95;4.38;;;;;;;5.75;100.00;102177.06;5174535;28;20025;-80
2021/04/26 06:51:18;;;;;;;14.02;4.60;;;;;;;5.84;100.00;102178.28;5178633;28;20100;-78
2021/04/26 06:53:49;;;;;;;11.88;4.43;;;;;;;5.91;100.00;102175.09;5171843;28;20038;-78
2021/04/26 06:56:19;;;;;;;11.35;4.45;;;;;;;5.90;100.00;102170.72;5177560;28;20506;-80
2021/04/26 06:58:50;;;;;;;13.48;5.25;;;;;;;5.91;100.00;102177.78;5161336;28;20048;-79
2021/04/26 07:01:20;;;;;;;12.38;4.57;;;;;;;6.05;100.00;102173.34;5188819;28;20042;-80
2021/04/26 07:03:50;;;;;;;14.52;5.05;;;;;;;6.18;100.00;102171.53;5186726;28;20021;-77
2021/04/26 07:06:21;;;;;;;17.63;4.68;;;;;;;6.40;100.00;102171.75;5188214;28;20029;-80
2021/04/26 07:08:51;;;;;;;8.60;4.15;;;;;;;6.57;100.00;102180.38;5158402;28;20042;-79
2021/04/26 07:11:22;;;;;;;14.10;4.93;;;;;;;6.69;100.00;102172.38;5163316;28;20494;-79
2021/04/26 07:13:52;;;;;;;17.08;4.47;;;;;;;6.92;100.00;102173.38;5178288;28;20032;-79
2021/04/26 07:16:23;;;;;;;11.90;4.70;;;;;;;7.11;100.00;102170.25;5182090;28;20036;-78
2021/04/26 07:18:53;;;;;;;11.55;4.78;;;;;;;7.27;100.00;102169.97;5177449;28;20061;-80
2021/04/26 07:21:24;;;;;;;12.13;4.15;;;;;;;7.35;100.00;102154.25;5168897;28;20023;-80
2021/04/26 07:23:54;;;;;;;14.85;4.60;;;;;;;7.36;100.00;102158.63;5166929;28;20036;-80
2021/04/26 07:26:25;;;;;;;15.60;4.55;;;;;;;7.35;100.00;102159.59;5166128;28;20029;-81
2021/04/26 07:28:55;;;;;;;14.30;5.10;;;;;;;7.52;100.00;102148.50;5178845;28;20026;-78
2021/04/26 07:31:25;;;;;;;10.60;4.32;;;;;;;7.72;100.00;102159.50;5173064;28;20392;-79
2021/04/26 07:33:56;;;;;;;13.65;5.13;;;;;;;7.73;100.00;102151.41;5171957;28;20558;-81
2021/04/26 07:36:26;;;;;;;14.50;4.60;;;;;;;7.84;100.00;102150.59;5171428;28;20072;-81
2021/04/26 07:38:57;;;;;;;14.90;4.97;;;;;;;7.97;100.00;102155.81;5182793;28;20024;-81
2021/04/26 07:41:27;;;;;;;10.88;4.75;;;;;;;8.17;100.00;102156.97;5179179;28;20030;-79
2021/04/26 07:43:58;;;;;;;8.98;4.90;;;;;;;8.30;100.00;102152.38;5188118;28;20022;-80
2021/04/26 07:46:28;;;;;;;11.35;4.90;;;;;;;8.40;100.00;102155.22;5170119;28;20034;-81
2021/04/26 07:48:59;;;;;;;12.30;5.07;;;;;;;8.58;91.35;102145.72;5187669;28;20236;-80
2021/04/26 07:51:29;;;;;;;13.70;5.30;;;;;;;8.77;89.56;102151.31;5190232;28;20049;-80
2021/04/26 07:54:01;;;;;;;12.18;5.07;;;;;;;8.98;90.52;102151.41;5178449;28;20061;-81
2021/04/26 07:56:32;;;;;;;8.82;5.10;;;;;;;9.07;86.35;102152.50;5176266;28;20141;-78
2021/04/26 07:59:02;;;;;;;15.23;5.55;;;;;;;9.25;86.90;102152.84;5177235;28;20078;-80
2021/04/26 08:01:33;;;;;;;16.80;4.80;;;;;;;9.49;82.53;102150.81;5180871;28;20098;-79
2021/04/26 08:04:04;;;;;;;12.35;5.55;;;;;;;9.57;72.76;102153.69;5169580;28;20088;-80
2021/04/26 08:06:34;;;;;;;12.35;4.57;;;;;;;9.63;72.34;102160.34;5186167;28;20051;-80
2021/04/26 08:09:06;;;;;;;12.90;4.95;;;;;;;9.52;67.63;102147.00;5190627;28;20025;-79
2021/04/26 08:11:36;;;;;;;12.80;4.75;;;;;;;9.57;73.00;102155.53;5190030;28;20045;-81
2021/04/26 08:14:07;;;;;;;13.75;5.00;;;;;;;9.59;68.90;102146.38;5179921;28;20535;-80
2021/04/26 08:16:39;;;;;;;17.35;5.47;;;;;;;9.70;67.87;102153.53;5174865;28;20029;-79
2021/04/26 08:19:10;;;;;;;13.07;4.80;;;;;;;9.93;68.57;102148.88;5177645;28;20037;-81
2021/04/26 08:21:41;;;;;;;14.55;4.90;;;;;;;9.89;66.90;102144.78;5169279;28;20022;-80
2021/04/26 08:24:11;;;;;;;14.93;5.00;;;;;;;9.84;74.75;102138.97;5197713;28;20117;-78
2021/04/26 08:26:41;;;;;;;10.73;4.70;;;;;;;9.90;67.23;102137.59;5190304;28;20112;-79
2021/04/26 08:29:12;;;;;;;12.98;4.55;;;;;;;9.99;63.46;102131.41;5181745;28;20072;-80
2021/04/26 08:31:42;;;;;;;14.77;4.47;;;;;;;9.98;63.41;102141.31;5179923;28;20506;-81
2021/04/26 08:34:13;;;;;;;11.98;4.32;;;;;;;9.95;63.13;102130.00;5189442;28;20041;-79
2021/04/26 08:36:44;;;;;;;18.35;4.72;;;;;;;10.12;67.21;102126.72;5179297;28;20026;-80
2021/04/26 08:39:16;;;;;;;10.90;4.40;;;;;;;10.44;61.57;102131.16;5183222;28;20080;-79
2021/04/26 08:41:47;;;;;;;10.05;4.82;;;;;;;10.61;63.35;102123.31;5182101;28;20041;-80
2021/04/26 08:44:17;;;;;;;12.00;4.30;;;;;;;10.73;63.45;102117.84;5189791;28;20469;-81
2021/04/26 08:46:48;;;;;;;16.05;4.68;;;;;;;10.95;64.03;102117.66;5176070;28;20026;-79
2021/04/26 08:49:19;;;;;;;15.57;4.35;;;;;;;11.13;61.30;102123.19;5182754;28;20033;-79
2021/04/26 08:51:50;;;;;;;11.68;4.65;;;;;;;11.46;57.45;102113.03;5169403;28;20037;-81
2021/04/26 08:54:20;;;;;;;10.13;4.28;;;;;;;11.46;57.34;102110.34;5177143;28;20026;-80
2021/04/26 08:56:51;;;;;;;14.90;4.50;;;;;;;11.51;55.06;102114.31;5170015;28;20101;-80
2021/04/26 08:59:22;;;;;;;14.20;5.47;;;;;;;11.33;55.30;102110.63;5169292;28;20573;-80
2021/04/26 09:02:02;;;;;;;8.82;4.38;;;;;;;11.33;57.15;102108.78;5186440;28;20107;-80
2021/04/26 09:04:35;;;;;;;12.88;4.22;;;;;;;11.52;53.17;102102.56;5182221;28;20057;-80
2021/04/26 09:07:13;;;;;;;10.75;3.88;;;;;;;11.41;53.44;102091.97;5169050;28;20026;-81
2021/04/26 09:09:44;;;;;;;9.50;3.83;;;;;;;11.37;51.77;102091.41;5184329;28;20372;-80
2021/04/26 09:12:26;;;;;;;7.85;3.72;;;;;;;11.67;54.41;102095.78;5180566;28;20118;-77
2021/04/26 09:15:00;;;;;;;12.15;3.75;;;;;;;11.89;48.83;102086.56;5174970;28;20411;-81
2021/04/26 09:17:49;;;;;;;5.03;2.75;;;;;;;11.88;44.84;102098.31;5178965;28;20022;-81
2021/04/26 09:20:23;;;;;;;9.38;3.08;;;;;;;11.97;48.43;102085.84;5178751;28;20034;-81
2021/04/26 09:22:56;;;;;;;9.05;4.05;;;;;;;12.07;46.25;102077.75;5176427;28;20025;-81
2021/04/26 09:25:35;;;;;;;6.82;2.72;;;;;;;12.01;46.68;102089.09;5190150;28;20076;-81
2021/04/26 09:28:09;;;;;;;5.18;2.75;;;;;;;12.19;50.79;102090.03;5178453;28;20022;-79
2021/04/26 09:30:45;;;;;;;10.25;3.25;;;;;;;12.25;44.48;102062.56;5181100;28;20168;-80
2021/04/26 09:33:23;;;;;;;13.23;3.38;;;;;;;12.23;48.88;102075.28;5163946;28;20026;-80
2021/04/26 09:36:18;;;;;;;5.47;3.03;;;;;;;12.40;46.57;102060.22;5186073;28;20026;-80
2021/04/26 09:38:51;;;;;;;5.70;3.47;;;;;;;12.39;46.08;102058.50;5183030;28;20030;-79
2021/04/26 09:41:24;;;;;;;11.35;3.45;;;;;;;12.63;45.43;102061.50;5183359;28;20046;-82
2021/04/26 09:44:01;;;;;;;6.15;3.30;;;;;;;12.79;45.45;102054.63;5182286;28;20391;-81
2021/04/26 09:46:40;;;;;;;7.85;3.58;;;;;;;12.68;44.83;102051.13;5180369;28;20037;-81
2021/04/26 09:49:13;;;;;;;9.82;3.75;;;;;;;12.66;46.39;102045.06;5176969;28;20072;-79
2021/04/26 09:51:50;;;;;;;9.65;3.65;;;;;;;12.80;46.95;102037.44;5177234;28;20124;-78
2021/04/26 09:54:36;;;;;;;8.15;3.38;;;;;;;12.72;42.99;102048.16;5182736;28;20109;-80
2021/04/26 09:57:08;;;;;;;13.48;4.18;;;;;;;12.74;45.06;102054.22;5165930;28;20023;-81
2021/04/26 09:59:38;;;;;;;9.15;3.72;;;;;;;12.89;44.06;102036.53;5175034;28;20037;-78
2021/04/26 10:02:09;;;;;;;6.95;3.88;;;;;;;12.80;44.94;102030.25;5169319;28;20479;-78
2021/04/26 10:04:42;;;;;;;5.53;3.38;;;;;;;12.88;41.90;102026.78;5169098;28;20030;-78
2021/04/26 10:07:13;;;;;;;7.80;3.30;;;;;;;13.02;44.66;102020.84;5162694;28;20084;-78
2021/04/26 10:09:45;;;;;;;9.23;3.50;;;;;;;12.92;45.67;102023.63;5163207;28;20443;-79
2021/04/26 10:12:16;;;;;;;6.13;3.50;;;;;;;13.09;41.18;102019.22;5182215;28;20100;-80
2021/04/26 10:14:46;;;;;;;7.70;4.20;;;;;;;13.12;42.88;102020.78;5167025;28;20113;-80
2021/04/26 10:17:21;;;;;;;7.85;3.90;;;;;;;13.31;45.38;102001.78;5162738;28;20031;-79
2021/04/26 10:19:51;;;;;;;6.73;3.53;;;;;;;13.36;41.50;102015.66;5176685;28;20045;-81
2021/04/26 10:22:36;;;;;;;9.00;3.42;;;;;;;13.50;46.50;102007.97;5167066;28;20034;-82
2021/04/26 10:25:08;;;;;;;5.63;3.17;;;;;;;13.53;43.24;102004.97;5173043;28;20026;-80
2021/04/26 10:27:41;;;;;;;9.30;3.38;;;;;;;13.92;42.52;102008.94;5169629;28;20026;-82
2021/04/26 10:30:16;;;;;;;7.70;2.95;;;;;;;13.95;38.69;101996.97;5211065;28;20073;-82
2021/04/26 10:33:03;;;;;;;6.95;3.40;;;;;;;14.01;39.98;102007.16;5192789;28;20056;-85
2021/04/26 10:35:46;;;;;;;4.85;2.90;;;;;;;14.14;42.30;101995.91;5180439;28;20034;-82
2021/04/26 10:38:35;;;;;;;4.43;2.90;;;;;;;14.09;41.18;101990.97;5181518;28;20018;-80
2021/04/26 10:41:07;;;;;;;7.60;3.58;;;;;;;14.09;42.96;101990.13;5176154;28;20044;-80
2021/04/26 10:43:37;;;;;;;7.88;3.42;;;;;;;14.23;41.41;101974.19;5187442;28;20068;-79
2021/04/26 10:46:17;;;;;;;8.25;3.65;;;;;;;14.09;41.35;101984.75;5167801;28;20030;-81
2021/04/26 10:49:03;;;;;;;10.57;3.58;;;;;;;14.00;38.33;101981.16;5168271;28;20053;-80
2021/04/26 10:51:35;;;;;;;;;;;;;;;14.00;40.95;101979.28;5188613;28;20411;-80
2021/04/26 10:54:06;;;;;;;8.18;3.50;;;;;;;14.28;42.58;101979.09;5187431;28;19940;-81
2021/04/26 10:56:37;;;;;;;13.20;3.55;;;;;;;14.32;39.77;101968.81;5181273;28;20485;-84
2021/04/26 10:59:17;;;;;;;7.18;3.35;;;;;;;14.62;38.77;101968.25;5163059;28;20053;-81
2021/04/26 11:01:48;;;;;;;7.65;3.13;;;;;;;14.76;40.45;101956.81;5187024;28;20033;-84
2021/04/26 11:04:20;;;;;;;6.78;3.38;;;;;;;15.05;39.06;101950.06;5176837;28;20034;-81
2021/04/26 11:07:15;;;;;;;8.73;3.38;;;;;;;15.17;37.50;101953.28;5167712;28;20026;-81
2021/04/26 11:09:46;;;;;;;8.70;3.97;;;;;;;14.72;37.35;101941.94;5180346;28;20084;-80
2021/04/26 11:12:31;;;;;;;13.52;4.07;;;;;;;14.38;39.71;101933.91;5166332;28;20480;-81
2021/04/26 11:15:14;;;;;;;9.00;3.45;;;;;;;14.09;39.16;101939.72;5166689;28;20025;-80
2021/04/26 11:17:45;;;;;;;5.90;3.33;;;;;;;14.33;38.63;101921.91;5168891;28;20495;-81
2021/04/26 11:20:19;;;;;;;9.52;3.65;;;;;;;14.71;42.23;101920.50;5178854;28;20041;-83
2021/04/26 11:22:54;;;;;;;6.38;3.50;;;;;;;14.75;39.10;101914.59;5165894;28;20022;-82
2021/04/26 11:25:34;;;;;;;8.67;3.17;;;;;;;14.65;38.75;101922.00;5177376;28;20022;-81
2021/04/26 11:28:06;;;;;;;10.07;3.50;;;;;;;14.71;39.19;101910.56;5169206;28;20372;-81
2021/04/26 11:30:37;;;;;;;8.05;3.55;;;;;;;14.59;39.21;101911.03;5168773;28;20080;-80
2021/04/26 11:33:11;;;;;;;9.00;3.58;;;;;;;14.40;36.59;101917.53;5188756;28;20026;-80
2021/04/26 11:36:12;;;;;;;8.25;3.92;;;;;;;14.42;37.46;101913.69;5193808;28;20643;-80
2021/04/26 11:38:46;;;;;;;11.48;4.18;;;;;;;14.55;36.53;101904.28;5168964;28;20612;-80
2021/04/26 11:41:17;;;;;;;8.23;3.60;;;;;;;14.77;42.02;101907.19;5179944;28;20030;-82
2021/04/26 11:43:49;;;;;;;6.90;3.20;;;;;;;14.89;37.20;101920.34;5169108;28;20416;-80
2021/04/26 11:46:24;;;;;;;7.80;3.60;;;;;;;14.93;35.93;101905.50;5188773;28;20072;-80
2021/04/26 11:49:14;;;;;;;7.32;3.25;;;;;;;14.97;39.92;101894.19;5185011;28;20061;-82